Time;durP1;ratioP1;P1;durP2;ratioP2;P2;SDS_P1;SDS_P2;PMS_P1;PMS_P2;Temp;Humidity;BMP_temperature;BMP_pressure;BME280_temperature;BME280_humidity;BME280_pressure;Samples;Min_cycle;Max_cycle;Signal;HPM_P1;HPM_P2
2022/12/04 00:01:44;;;;;;;;;;;;;;;7.57;100.00;100279.09;5097266;28;19916;-82
2022/12/04 00:04:10;;;;;;;;;;;;;;;7.63;100.00;100283.78;5097025;28;19931;-83
2022/12/04 00:06:35;;;;;;;;;;;;;;;7.62;100.00;100276.84;5097678;28;20385;-84
2022/12/04 00:09:01;;;;;;;;;;;;;;;7.67;100.00;100282.50;5099699;28;20011;-82
2022/12/04 00:11:28;;;;;;;;;;;;;;;7.56;100.00;100279.25;5096999;28;19951;-83
2022/12/04 00:13:53;;;;;;;;;;;;;;;7.66;100.00;100274.72;5095540;28;20396;-82
2022/12/04 00:16:20;;;;;;;;;;;;;;;7.63;100.00;100265.31;5097001;28;19924;-86
2022/12/04 00:18:46;;;;;;;;;;;;;;;7.55;100.00;100253.88;5094971;28;19920;-82
2022/12/04 00:21:12;;;;;;;;;;;;;;;7.70;100.00;100257.63;5096089;28;19916;-81
2022/12/04 00:23:38;;;;;;;;;;;;;;;7.74;100.00;100249.28;5094604;28;19969;-82
2022/12/04 00:26:05;;;;;;;;;;;;;;;7.69;100.00;100251.53;5095975;28;20018;-85
2022/12/04 00:28:31;;;;;;;;;;;;;;;7.92;100.00;100245.81;5097174;28;20441;-84
2022/12/04 00:30:56;;;;;;;;;;;;;;;7.67;100.00;100256.13;5095770;28;20006;-82
2022/12/04 00:33:22;;;;;;;;;;;;;;;7.65;100.00;100244.09;5097293;28;19927;-82
2022/12/04 00:35:47;;;;;;;;;;;;;;;7.60;100.00;100239.25;5098597;28;20280;-83
2022/12/04 00:38:13;;;;;;;;;;;;;;;7.59;100.00;100240.22;5101537;28;19927;-81
2022/12/04 00:40:38;;;;;;;;;;;;;;;7.52;100.00;100239.19;5100928;28;19920;-84
2022/12/04 00:43:03;;;;;;;;;;;;;;;7.62;100.00;100239.91;5101599;28;20277;-82
2022/12/04 00:45:29;;;;;;;;;;;;;;;7.41;100.00;100231.47;5100962;28;20334;-82
2022/12/04 00:47:54;;;;;;;;;;;;;;;7.44;100.00;100230.34;5102743;28;19920;-81
2022/12/04 00:50:20;;;;;;;;;;;;;;;7.53;100.00;100229.44;5108611;28;19920;-81
2022/12/04 00:52:45;;;;;;;;;;;;;;;7.49;100.00;100231.53;5100333;28;19920;-81
2022/12/04 00:55:11;;;;;;;;;;;;;;;7.41;100.00;100231.47;5099300;28;19920;-81
2022/12/04 00:57:36;;;;;;;;;;;;;;;7.43;100.00;100233.94;5099091;28;19920;-85
2022/12/04 01:00:03;;;;;;;;;;;;;;;7.36;100.00;100231.06;5100125;28;19977;-81
2022/12/04 01:02:29;;;;;;;;;;;;;;;7.19;100.00;100224.00;5101202;28;20000;-83
2022/12/04 01:04:54;;;;;;;;;;;;;;;7.04;100.00;100221.00;5098917;28;20399;-83
2022/12/04 01:07:20;;;;;;;;;;;;;;;6.99;100.00;100225.91;5099017;28;20018;-82
2022/12/04 01:09:45;;;;;;;;;;;;;;;6.95;100.00;100218.44;5102216;28;20368;-82
2022/12/04 01:12:10;;;;;;;;;;;;;;;6.99;100.00;100217.16;5102459;28;19920;-83
2022/12/04 01:14:36;;;;;;;;;;;;;;;6.74;100.00;100210.75;5100986;28;19924;-82
2022/12/04 01:17:01;;;;;;;;;;;;;;;6.70;100.00;100210.22;5102378;28;20014;-82
2022/12/04 01:19:27;;;;;;;;;;;;;;;6.80;100.00;100198.78;5099947;28;19924;-84
2022/12/04 01:21:52;;;;;;;;;;;;;;;6.86;100.00;100192.97;5115523;28;19924;-82
2022/12/04 01:24:17;;;;;;;;;;;;;;;6.87;100.00;100182.28;5121189;28;19926;-83
2022/12/04 01:26:43;;;;;;;;;;;;;;;6.75;100.00;100189.56;5121194;28;20022;-84
2022/12/04 01:29:08;;;;;;;;;;;;;;;6.66;100.00;100190.41;5120305;28;19920;-85
2022/12/04 01:31:33;;;;;;;;;;;;;;;6.64;100.00;100184.47;5118100;28;19920;-80
2022/12/04 01:33:59;;;;;;;;;;;;;;;6.59;100.00;100189.34;5115501;28;19969;-85
2022/12/04 01:36:26;;;;;;;;;;;;;;;6.62;100.00;100191.69;5116028;28;19920;-82
2022/12/04 01:38:52;;;;;;;;;;;;;;;6.63;100.00;100193.31;5114994;28;20401;-85
2022/12/04 01:41:19;;;;;;;;;;;;;;;6.57;100.00;100193.91;5115027;28;20004;-84
2022/12/04 01:44:05;;;;;;;;;;;;;;;6.48;100.00;100186.88;5114061;28;19939;-81
2022/12/04 01:46:30;;;;;;;;;;;;;;;6.52;100.00;100185.63;5115291;28;20006;-84
2022/12/04 01:48:56;;;;;;;;;;;;;;;6.58;100.00;100185.03;5115661;28;19966;-84
2022/12/04 01:51:28;;;;;;;;;;;;;;;6.66;100.00;100182.50;5114884;28;19927;-81
2022/12/04 01:53:59;;;;;;;;;;;;;;;6.64;100.00;100184.47;5115253;28;19920;-82
2022/12/04 01:56:30;;;;;;;;;;;;;;;6.69;100.00;100176.94;5096745;28;20089;-84
2022/12/04 01:58:57;;;;;;;;;;;;;;;6.59;100.00;100170.91;5097385;28;19945;-82
2022/12/04 02:01:24;;;;;;;;;;;;;;;6.53;100.00;100160.94;5117400;28;19920;-81
2022/12/04 02:03:50;;;;;;;;;;;;;;;6.58;100.00;100163.16;5113847;28;19973;-81
2022/12/04 02:06:15;;;;;;;;;;;;;;;6.64;100.00;100171.28;5115158;28;19919;-81
2022/12/04 02:08:41;;;;;;;;;;;;;;;6.62;100.00;100157.47;5114467;28;19920;-80
2022/12/04 02:11:16;;;;;;;;;;;;;;;6.65;100.00;100165.06;5116045;28;19938;-81
2022/12/04 02:14:00;;;;;;;;;;;;;;;6.62;100.00;100149.56;5117599;28;19955;-81
2022/12/04 02:16:28;;;;;;;;;;;;;;;6.59;100.00;100157.75;5124992;28;20390;-81
2022/12/04 02:19:13;;;;;;;;;;;;;;;6.62;100.00;100159.25;5117473;28;20295;-81
2022/12/04 02:21:42;;;;;;;;;;;;;;;6.73;100.00;100151.16;5120814;28;19920;-80
2022/12/04 02:24:10;;;;;;;;;;;;;;;6.91;100.00;100151.19;5115712;28;20011;-82
2022/12/04 02:26:44;;;;;;;;;;;;;;;6.78;100.00;100153.34;5117338;28;19996;-81
2022/12/04 02:29:10;;;;;;;;;;;;;;;6.76;100.00;100141.16;5116650;28;19924;-81
2022/12/04 02:31:55;;;;;;;;;;;;;;;6.67;100.00;100141.19;5116847;28;19970;-82
2022/12/04 02:34:24;;;;;;;;;;;;;;;6.63;100.00;100134.56;5114418;28;20279;-83
2022/12/04 02:36:53;;;;;;;;;;;;;;;6.56;100.00;100129.06;5114495;28;19972;-82
2022/12/04 02:39:22;;;;;;;;;;;;;;;6.53;100.00;100116.19;5115602;28;19942;-82
2022/12/04 02:41:55;;;;;;;;;;;;;;;6.52;100.00;100117.19;5116027;28;20280;-83
2022/12/04 02:44:23;;;;;;;;;;;;;;;6.53;100.00;100116.19;5113606;28;20308;-82
2022/12/04 02:46:51;;;;;;;;;;;;;;;6.58;100.00;100110.50;5117655;28;19920;-82
2022/12/04 02:49:20;;;;;;;;;;;;;;;6.56;100.00;100108.00;5118068;28;19920;-80
2022/12/04 02:51:47;;;;;;;;;;;;;;;6.59;100.00;100102.47;5117923;28;19920;-82
2022/12/04 02:54:17;;;;;;;;;;;;;;;6.56;100.00;100094.81;5117851;28;19920;-81
2022/12/04 02:56:45;;;;;;;;;;;;;;;6.54;100.00;100094.16;5117716;28;20090;-81
2022/12/04 02:59:17;;;;;;;;;;;;;;;6.50;100.00;100087.53;5117936;28;19919;-83
2022/12/04 03:01:45;;;;;;;;;;;;;;;6.46;100.00;100086.19;5117752;28;19919;-83
2022/12/04 03:04:11;;;;;;;;;;;;;;;6.47;100.00;100082.56;5117300;28;19947;-84
2022/12/04 03:06:39;;;;;;;;;;;;;;;6.52;100.00;100085.59;5117275;28;20360;-82
2022/12/04 03:09:15;;;;;;;;;;;;;;;6.57;100.00;100083.34;5117231;28;19916;-83
2022/12/04 03:11:43;;;;;;;;;;;;;;;6.61;100.00;100083.88;5117452;28;19920;-84
2022/12/04 03:14:13;;;;;;;;;;;;;;;6.74;100.00;100079.91;5115797;28;19916;-83
2022/12/04 03:16:40;;;;;;;;;;;;;;;6.70;100.00;100078.53;5117849;28;19920;-81
2022/12/04 03:19:11;;;;;;;;;;;;;;;6.59;100.00;100084.03;5118007;27;20273;-81
2022/12/04 03:21:39;;;;;;;;;;;;;;;6.60;100.00;100083.03;5117489;28;20046;-82
2022/12/04 03:24:14;;;;;;;;;;;;;;;6.69;100.00;100079.50;5116383;28;19920;-83
2022/12/04 03:26:46;;;;;;;;;;;;;;;6.66;100.00;100071.91;5118692;28;20292;-81
2022/12/04 03:29:18;;;;;;;;;;;;;;;6.59;100.00;100062.97;5118828;28;20284;-83
2022/12/04 03:31:58;;;;;;;;;;;;;;;6.59;100.00;100055.06;5118108;28;20345;-83
2022/12/04 03:34:26;;;;;;;;;;;;;;;6.58;100.00;100065.75;5118091;28;20061;-83
2022/12/04 03:36:54;;;;;;;;;;;;;;;6.54;100.00;100067.00;5124187;28;20389;-83
2022/12/04 03:39:21;;;;;;;;;;;;;;;6.59;100.00;100065.59;5117746;28;19920;-85
2022/12/04 03:41:50;;;;;;;;;;;;;;;6.61;100.00;100063.63;5127115;28;19916;-81
2022/12/04 03:44:41;;;;;;;;;;;;;;;6.58;100.00;100053.41;5119347;28;19924;-80
2022/12/04 03:47:08;;;;;;;;;;;;;;;6.57;100.00;100057.00;5113793;28;19971;-84
2022/12/04 03:49:43;;;;;;;;;;;;;;;6.55;100.00;100048.44;5118355;28;20006;-80
2022/12/04 03:52:27;;;;;;;;;;;;;;;6.59;100.00;100049.81;5120533;28;19920;-81
2022/12/04 03:54:55;;;;;;;;;;;;;;;6.56;100.00;100046.63;5118367;28;20023;-82
2022/12/04 03:57:27;;;;;;;;;;;;;;;6.57;100.00;100051.75;5117709;27;19959;-84
2022/12/04 03:59:57;;;;;;;;;;;;;;;6.57;100.00;100041.22;5117495;28;19928;-81
2022/12/04 04:02:26;;;;;;;;;;;;;;;6.56;100.00;100033.47;5117924;28;20447;-81
2022/12/04 04:04:53;;;;;;;;;;;;;;;6.58;100.00;100032.34;5117033;28;20310;-82
2022/12/04 04:07:21;;;;;;;;;;;;;;;6.57;100.00;100033.31;5116017;28;20473;-80
2022/12/04 04:09:49;;;;;;;;;;;;;;;6.57;100.00;100030.69;5116219;27;19963;-82
2022/12/04 04:12:23;;;;;;;;;;;;;;;6.60;100.00;100033.00;5116315;28;19919;-82
2022/12/04 04:26:12;;;;;;;;;;;;;;;6.67;100.00;100025.34;5116267;28;20245;-81
2022/12/04 04:28:38;;;;;;;;;;;;;;;6.65;100.00;100022.88;5115059;28;20366;-83
2022/12/04 04:31:39;;;;;;;;;;;;;;;6.63;100.00;100018.72;5116177;28;20015;-80
2022/12/04 04:34:11;;;;;;;;;;;;;;;6.66;100.00;100024.50;5033451;28;19928;-83
2022/12/04 04:36:50;;;;;;;;;;;;;;;6.67;100.00;100031.44;5103361;28;19924;-79
2022/12/04 04:39:22;;;;;;;;;;;;;;;6.67;100.00;100035.88;5116157;28;19930;-80
2022/12/04 04:42:07;;;;;;;;;;;;;;;6.68;100.00;100048.91;5115777;28;19916;-81
2022/12/04 04:44:44;;;;;;;;;;;;;;;6.66;100.00;100064.00;5114950;28;20022;-81
2022/12/04 04:47:12;;;;;;;;;;;;;;;6.85;100.00;100059.59;5115615;28;20287;-80
2022/12/04 04:49:39;;;;;;;;;;;;;;;6.74;100.00;100058.84;5114440;28;19942;-83
2022/12/04 04:52:04;;;;;;;;;;;;;;;6.72;100.00;100050.28;5114192;28;19942;-82
2022/12/04 04:54:32;;;;;;;;;;;;;;;6.86;100.00;100071.81;5115497;28;20356;-80
2022/12/04 04:56:58;;;;;;;;;;;;;;;6.82;100.00;100073.06;5095862;28;19943;-80
2022/12/04 04:59:23;;;;;;;;;;;;;;;6.88;100.00;100069.84;5095120;28;20341;-82
2022/12/04 05:01:48;;;;;;;;;;;;;;;6.83;100.00;100072.09;5095245;28;19920;-81
2022/12/04 05:04:14;;;;;;;;;;;;;;;6.92;100.00;100071.19;5095418;28;19924;-81
2022/12/04 05:06:39;;;;;;;;;;;;;;;6.93;100.00;100067.56;5097808;28;19920;-80
2022/12/04 05:09:04;;;;;;;;;;;;;;;6.94;100.00;100049.00;5100760;28;19935;-82
2022/12/04 05:11:30;;;;;;;;;;;;;;;7.01;100.00;100038.69;5077794;28;20419;-82
2022/12/04 05:13:55;;;;;;;;;;;;;;;7.11;100.00;100044.69;5095947;28;19963;-82
2022/12/04 05:16:21;;;;;;;;;;;;;;;7.09;100.00;100046.66;5095391;28;20399;-84
2022/12/04 05:21:30;;;;;;;;;;;;;;;6.95;100.00;100052.47;5094419;28;19923;-79
2022/12/04 05:23:56;;;;;;;;;;;;;;;6.90;100.00;100057.34;5094802;28;19920;-82
2022/12/04 05:26:21;;;;;;;;;;;;;;;6.95;100.00;100049.81;5094872;28;19920;-82
2022/12/04 05:28:46;;;;;;;;;;;;;;;6.94;100.00;100054.25;5094694;28;19920;-80
2022/12/04 05:31:12;;;;;;;;;;;;;;;7.00;100.00;100048.38;5094472;28;19963;-80
2022/12/04 05:33:37;;;;;;;;;;;;;;;6.92;100.00;100050.13;5094361;28;20380;-83
2022/12/04 05:36:04;;;;;;;;;;;;;;;6.96;100.00;100054.13;5094189;28;20003;-82
2022/12/04 05:38:30;;;;;;;;;;;;;;;7.01;100.00;100044.78;5094012;28;20004;-82
2022/12/04 05:40:59;;;;;;;;;;;;;;;6.99;100.00;100045.91;5096142;28;20343;-81
2022/12/04 05:43:24;;;;;;;;;;;;;;;6.91;100.00;100049.28;5094948;28;19924;-80
2022/12/04 05:45:50;;;;;;;;;;;;;;;6.97;100.00;100050.50;5094154;28;20289;-81
2022/12/04 05:48:15;;;;;;;;;;;;;;;7.05;100.00;100046.16;5094245;28;20030;-79
2022/12/04 05:50:40;;;;;;;;;;;;;;;6.99;100.00;100046.75;5094310;28;19912;-81
2022/12/04 05:53:06;;;;;;;;;;;;;;;6.84;100.00;100042.97;5094157;28;19920;-82
2022/12/04 05:55:31;;;;;;;;;;;;;;;6.76;100.00;100046.34;5093829;28;20300;-85
2022/12/04 05:57:57;;;;;;;;;;;;;;;6.91;100.00;100053.72;5096127;28;19920;-80
2022/12/04 06:00:22;;;;;;;;;;;;;;;6.95;100.00;100044.56;5114222;28;19920;-83
2022/12/04 06:02:48;;;;;;;;;;;;;;;6.74;100.00;100045.66;5115878;28;19932;-83
2022/12/04 06:05:13;;;;;;;;;;;;;;;6.80;100.00;100046.03;5114412;28;19920;-81
2022/12/04 06:07:38;;;;;;;;;;;;;;;6.75;100.00;100055.25;5116156;28;19920;-82
2022/12/04 06:10:05;;;;;;;;;;;;;;;6.82;100.00;100049.38;5114651;28;19920;-80
2022/12/04 06:12:30;;;;;;;;;;;;;;;6.76;100.00;100046.34;5114512;28;19927;-80
2022/12/04 06:14:56;;;;;;;;;;;;;;;6.67;100.00;100051.69;5113636;28;19920;-82
2022/12/04 06:17:21;;;;;;;;;;;;;;;6.67;100.00;100056.94;5113540;28;19946;-84
2022/12/04 06:19:46;;;;;;;;;;;;;;;6.71;100.00;100048.59;5114875;28;20334;-83
2022/12/04 06:22:12;;;;;;;;;;;;;;;6.69;100.00;100040.00;5115219;28;20296;-84
2022/12/04 06:24:37;;;;;;;;;;;;;;;6.74;100.00;100043.03;5114495;28;19919;-82
2022/12/04 06:27:03;;;;;;;;;;;;;;;6.72;100.00;100045.00;5115633;28;19920;-83
2022/12/04 06:29:28;;;;;;;;;;;;;;;6.66;100.00;100045.56;5113435;28;20441;-82
2022/12/04 06:31:53;;;;;;;;;;;;;;;6.67;100.00;100043.78;5115319;28;19939;-82
2022/12/04 06:34:19;;;;;;;;;;;;;;;6.70;100.00;100044.31;5123243;28;19987;-79
2022/12/04 06:36:44;;;;;;;;;;;;;;;6.87;100.00;100036.56;5117220;28;19920;-84
2022/12/04 06:39:09;;;;;;;;;;;;;;;6.71;100.00;100026.72;5113695;28;19977;-83
2022/12/04 06:41:35;;;;;;;;;;;;;;;6.67;100.00;100031.44;5114239;28;20402;-86
2022/12/04 06:44:00;;;;;;;;;;;;;;;6.76;100.00;100046.34;5114098;28;19920;-83
2022/12/04 06:46:27;;;;;;;;;;;;;;;6.75;100.00;100049.97;5114523;28;20359;-86
2022/12/04 06:48:54;;;;;;;;;;;;;;;6.77;100.00;100052.44;5115161;28;19919;-84
2022/12/04 06:51:26;;;;;;;;;;;;;;;6.73;100.00;100056.34;5114931;28;19916;-82
2022/12/04 06:53:52;;;;;;;;;;;;;;;6.67;100.00;100065.66;5114343;28;19974;-83
2022/12/04 06:56:22;;;;;;;;;;;;;;;6.67;100.00;100068.31;5114205;28;20392;-86
2022/12/04 06:58:49;;;;;;;;;;;;;;;6.80;100.00;100061.84;5115882;28;19924;-83
2022/12/04 07:01:16;;;;;;;;;;;;;;;6.78;100.00;100059.38;5114927;28;19920;-85
2022/12/04 07:03:42;;;;;;;;;;;;;;;6.88;100.00;100065.41;5117787;28;19920;-82
2022/12/04 07:06:14;;;;;;;;;;;;;;;6.85;100.00;100065.72;5126230;28;20295;-83
2022/12/04 07:08:40;;;;;;;;;;;;;;;6.84;100.00;100063.22;5116592;28;19919;-82
2022/12/04 07:11:05;;;;;;;;;;;;;;;6.90;100.00;100059.97;5115246;28;20406;-82
2022/12/04 07:13:30;;;;;;;;;;;;;;;6.84;100.00;100073.75;5114030;28;20436;-84
2022/12/04 07:15:58;;;;;;;;;;;;;;;6.99;100.00;100072.25;5112831;28;20350;-82
2022/12/04 07:18:23;;;;;;;;;;;;;;;7.06;100.00;100078.59;5113627;28;19927;-85
2022/12/04 07:20:49;;;;;;;;;;;;;;;7.24;100.00;100076.78;5113069;28;19919;-85
2022/12/04 07:23:14;;;;;;;;;;;;;;;7.16;100.00;100076.69;5113478;28;20273;-83
2022/12/04 07:25:40;;;;;;;;;;;;;;;7.22;100.00;100081.38;5113046;28;19981;-84
2022/12/04 07:28:05;;;;;;;;;;;;;;;7.15;100.00;100082.94;5113001;28;20014;-84
2022/12/04 07:30:31;;;;;;;;;;;;;;;7.15;100.00;100089.06;5115361;28;19920;-83
2022/12/04 07:32:56;;;;;;;;;;;;;;;7.16;100.00;100087.22;5120575;28;19928;-84
2022/12/04 07:35:21;;;;;;;;;;;;;;;7.33;100.00;100086.38;5117289;28;19931;-82
2022/12/04 07:37:47;;;;;;;;;;;;;;;7.40;100.00;100092.72;5117236;28;20214;-84
2022/12/04 07:40:13;;;;;;;;;;;;;;;7.47;100.00;100103.47;5116398;28;19916;-83
2022/12/04 07:42:38;;;;;;;;;;;;;;;7.47;100.00;100104.31;5117897;28;20377;-84
2022/12/04 07:45:04;;;;;;;;;;;;;;;7.38;100.00;100109.66;5116417;28;19926;-85
2022/12/04 07:47:29;;;;;;;;;;;;;;;7.21;100.00;100103.44;5118619;28;19920;-89
2022/12/04 07:49:54;;;;;;;;;;;;;;;7.21;100.00;100106.06;5118155;28;20014;-87
2022/12/04 07:52:20;;;;;;;;;;;;;;;7.25;100.00;100102.16;5117032;28;19941;-89
2022/12/04 07:55:04;;;;;;;;;;;;;;;7.26;100.00;100106.44;5132314;28;19966;-82
2022/12/04 07:57:30;;;;;;;;;;;;;;;7.10;100.00;100106.28;5136400;27;19929;-83
2022/12/04 07:59:55;;;;;;;;;;;;;;;7.10;100.00;100114.19;5141726;27;19924;-85
2022/12/04 08:02:21;;;;;;;;;;;;;;;7.10;100.00;100117.66;5129039;27;19949;-86
2022/12/04 08:04:47;;;;;;;;;;;;;;;7.03;100.00;100123.66;5117989;28;19984;-86
2022/12/04 08:07:12;;;;;;;;;;;;;;;7.09;100.00;100121.25;5099669;28;19989;-86
2022/12/04 08:09:38;;;;;;;;;;;;;;;7.17;100.00;100133.69;5116809;28;19950;-86
2022/12/04 08:12:03;;;;;;;;;;;;;;;7.07;100.00;100140.81;5117075;28;19929;-83
2022/12/04 08:14:29;;;;;;;;;;;;;;;6.90;100.00;100133.72;5118412;28;19919;-86
2022/12/04 08:16:54;;;;;;;;;;;;;;;6.86;100.00;100132.38;5119440;28;19920;-87
2022/12/04 08:19:20;;;;;;;;;;;;;;;7.02;100.00;100141.28;5122835;28;19920;-87
2022/12/04 08:21:45;;;;;;;;;;;;;;;7.10;100.00;100138.72;5120448;27;19970;-85
2022/12/04 08:24:10;;;;;;;;;;;;;;;7.14;100.00;100144.53;5124573;28;19927;-83
2022/12/04 08:26:36;;;;;;;;;;;;;;;7.13;100.00;100142.88;5122257;28;19923;-91
2022/12/04 08:29:02;;;;;;;;;;;;;;;7.10;100.00;100137.91;5118176;28;19926;-84
2022/12/04 08:31:29;;;;;;;;;;;;;;;7.27;100.00;100139.72;5118139;28;19966;-84
2022/12/04 08:33:55;;;;;;;;;;;;;;;7.43;100.00;100137.22;5113090;28;19928;-86
2022/12/04 08:36:21;;;;;;;;;;;;;;;7.28;100.00;100146.66;5096111;28;19927;-83
2022/12/04 08:38:47;;;;;;;;;;;;;;;7.14;100.00;100136.63;5096314;28;20384;-83
2022/12/04 08:41:13;;;;;;;;;;;;;;;7.21;100.00;100146.44;5095657;28;20007;-84
2022/12/04 08:43:39;;;;;;;;;;;;;;;7.21;100.00;100145.59;5105952;28;19982;-83
2022/12/04 08:46:05;;;;;;;;;;;;;;;7.24;100.00;100140.03;5095326;28;20430;-81
2022/12/04 08:48:31;;;;;;;;;;;;;;;7.29;100.00;100140.41;5095749;28;19916;-84
2022/12/04 08:50:57;;;;;;;;;;;;;;;7.34;100.00;100146.06;5095920;28;20351;-87
2022/12/04 08:53:22;;;;;;;;;;;;;;;7.42;100.00;100146.13;5096217;28;19920;-89
2022/12/04 08:55:48;;;;;;;;;;;;;;;7.39;100.00;100146.41;5094147;28;20291;-85
2022/12/04 08:58:14;;;;;;;;;;;;;;;7.42;100.00;100148.78;5095673;28;19924;-84
2022/12/04 09:00:39;;;;;;;;;;;;;;;7.37;100.00;100145.75;5098552;28;20048;-90
2022/12/04 09:03:05;;;;;;;;;;;;;;;7.44;100.00;100157.34;5107100;28;19920;-81
2022/12/04 09:05:30;;;;;;;;;;;;;;;7.47;100.00;100159.69;5121615;28;19970;-85
2022/12/04 09:07:56;;;;;;;;;;;;;;;7.50;100.00;100154.09;5127739;27;19931;-82
2022/12/04 09:10:24;;;;;;;;;;;;;;;7.65;100.00;100157.88;5125974;28;19920;-82
2022/12/04 09:12:50;;;;;;;;;;;;;;;7.69;100.00;100161.84;5115950;28;19983;-83
2022/12/04 09:15:18;;;;;;;;;;;;;;;7.72;100.00;100164.19;5107689;28;19977;-84
2022/12/04 09:17:44;;;;;;;;;;;;;;;7.90;100.00;100173.88;5110769;28;19984;-84
2022/12/04 09:20:09;;;;;;;;;;;;;;;8.01;100.00;100171.00;5111419;27;19920;-87
2022/12/04 09:22:35;;;;;;;;;;;;;;;7.84;100.00;100169.22;5114756;28;19984;-87
2022/12/04 09:25:01;;;;;;;;;;;;;;;7.77;100.00;100174.28;5105710;28;19927;-81
2022/12/04 09:27:26;;;;;;;;;;;;;;;7.82;100.00;100171.19;5113199;28;19920;-84
2022/12/04 09:29:52;;;;;;;;;;;;;;;7.88;100.00;100175.84;5102800;28;19930;-84
2022/12/04 09:32:17;;;;;;;;;;;;;;;7.97;100.00;100177.56;5102618;28;20020;-82
2022/12/04 09:34:43;;;;;;;;;;;;;;;7.98;100.00;100168.69;5100520;28;19974;-83
2022/12/04 09:37:08;;;;;;;;;;;;;;;8.10;100.00;100172.72;5102722;28;19981;-84
2022/12/04 09:39:34;;;;;;;;;;;;;;;8.25;100.00;100184.38;5101406;28;19923;-82
2022/12/04 09:41:59;;;;;;;;;;;;;;;8.54;100.00;100182.25;5102511;28;19959;-82
2022/12/04 09:44:38;;;;;;;;;;;;;;;8.54;100.00;100181.44;5103266;28;20372;-84
2022/12/04 09:47:18;;;;;;;;;;;;;;;8.58;100.00;100180.97;5102676;28;20018;-86
2022/12/04 09:49:56;;;;;;;;;;;;;;;8.74;100.00;100181.03;5103615;28;19923;-85
2022/12/04 09:52:26;;;;;;;;;;;;;;;8.53;100.00;100187.69;5110765;28;20452;-84
2022/12/04 09:54:52;;;;;;;;;;;;;;;8.68;100.00;100188.78;5115281;28;19931;-82
2022/12/04 09:57:27;;;;;;;;;;;;;;;8.60;100.00;100191.34;5114541;28;19924;-85
2022/12/04 09:59:53;;;;;;;;;;;;;;;8.53;100.00;100193.81;5105864;28;19931;-84
2022/12/04 10:02:30;;;;;;;;;;;;;;;8.49;100.00;100189.81;5109060;28;19924;-82
2022/12/04 10:04:55;;;;;;;;;;;;;;;8.50;100.00;100194.13;5105323;28;20585;-87
2022/12/04 10:07:27;;;;;;;;;;;;;;;8.50;100.00;100195.94;5096092;28;19920;-86
2022/12/04 10:09:59;;;;;;;;;;;;;;;8.47;100.00;100194.44;5106581;28;19945;-85
2022/12/04 10:13:03;;;;;;;;;;;;;;;8.50;100.00;100188.84;5101052;28;19978;-83
2022/12/04 10:15:48;;;;;;;;;;;;;;;8.61;100.00;100188.56;5016741;28;19952;-84
2022/12/04 10:18:32;;;;;;;;;;;;;;;8.65;100.00;100191.72;5014178;28;19932;-85
2022/12/04 10:21:05;;;;;;;;;;;;;;;8.68;100.00;100197.50;5081090;28;19927;-82
2022/12/04 10:23:30;;;;;;;;;;;;;;;8.75;100.00;100202.97;5102571;28;20280;-84
2022/12/04 10:25:57;;;;;;;;;;;;;;;8.77;100.00;100193.94;5101503;28;19919;-85
2022/12/04 10:28:35;;;;;;;;;;;;;;;8.99;100.00;100189.03;5099913;28;19916;-83
2022/12/04 10:31:02;;;;;;;;;;;;;;;9.02;100.00;100186.91;5102167;28;19920;-86
2022/12/04 10:33:36;;;;;;;;;;;;;;;9.18;100.00;100194.09;5094926;28;19916;-84
2022/12/04 10:36:02;;;;;;;;;;;;;;;9.14;100.00;100187.47;5098740;28;19942;-83
2022/12/04 10:38:41;;;;;;;;;;;;;;;9.10;100.00;100194.88;5098459;28;20380;-86
2022/12/04 10:41:15;;;;;;;;;;;;;;;9.11;100.00;100190.44;5105957;28;19946;-84
2022/12/04 10:43:43;;;;;;;;;;;;;;;9.22;100.00;100200.69;5128967;28;20006;-79
2022/12/04 10:46:14;;;;;;;;;;;;;;;9.23;100.00;100202.34;5133593;27;19908;-86
2022/12/04 10:48:40;;;;;;;;;;;;;;;9.34;100.00;100205.53;5113343;28;19930;-88
2022/12/04 10:51:12;;;;;;;;;;;;;;;9.33;100.00;100200.38;5092356;28;19924;-84
2022/12/04 10:53:37;;;;;;;;;;;;;;;9.35;100.00;100195.75;5104234;28;20096;-88
2022/12/04 10:56:23;;;;;;;;;;;;;;;9.45;100.00;100201.72;5104252;28;20400;-83
2022/12/04 10:58:59;;;;;;;;;;;;;;;9.41;100.00;100200.44;5100883;28;20501;-87
2022/12/04 11:01:26;;;;;;;;;;;;;;;9.49;100.00;100192.47;5101334;28;19923;-86
2022/12/04 11:04:00;;;;;;;;;;;;;;;9.62;100.00;100208.69;5103379;28;19920;-85
2022/12/04 11:06:26;;;;;;;;;;;;;;;9.77;100.00;100199.16;5100044;28;19920;-82
2022/12/04 11:08:52;;;;;;;;;;;;;;;9.90;100.00;100203.09;5113974;28;19920;-85
2022/12/04 11:11:26;;;;;;;;;;;;;;;10.12;100.00;100197.13;5103981;28;20040;-82
2022/12/04 11:14:02;;;;;;;;;;;;;;;10.29;100.00;100206.75;5098239;28;20285;-85
2022/12/04 11:16:38;;;;;;;;;;;;;;;10.24;100.00;100209.09;5095260;28;19969;-84
2022/12/04 11:19:18;;;;;;;;;;;;;;;10.02;100.00;100207.91;5096098;28;20004;-85
2022/12/04 11:21:43;;;;;;;;;;;;;;;10.12;100.00;100211.19;5096931;28;19949;-85
2022/12/04 11:24:16;;;;;;;;;;;;;;;10.26;100.00;100207.09;5096746;28;19955;-82
2022/12/04 11:26:42;;;;;;;;;;;;;;;10.28;100.00;100215.69;5097239;28;19924;-84
2022/12/04 11:29:13;;;;;;;;;;;;;;;10.21;100.00;100209.41;5095165;28;19927;-87
2022/12/04 11:31:39;;;;;;;;;;;;;;;10.21;100.00;100212.03;5079959;28;19920;-84
2022/12/04 11:34:06;;;;;;;;;;;;;;;10.30;100.00;100219.00;5101365;28;19920;-84
2022/12/04 11:36:32;;;;;;;;;;;;;;;10.36;100.00;100197.97;5098020;28;20296;-87
2022/12/04 11:39:06;;;;;;;;;;;;;;;10.28;100.00;100199.78;5100050;28;19916;-83
2022/12/04 11:41:32;;;;;;;;;;;;;;;10.20;100.00;100202.47;5101452;28;19931;-85
2022/12/04 11:43:58;;;;;;;;;;;;;;;10.26;100.00;100197.31;5099183;28;19920;-86
2022/12/04 11:46:25;;;;;;;;;;;;;;;10.24;100.00;100211.75;5096667;28;20007;-85
2022/12/04 11:48:51;;;;;;;;;;;;;;;10.20;100.00;100213.06;5096171;28;20452;-84
2022/12/04 11:51:35;;;;;;;;;;;;;;;10.21;100.00;100209.41;5090979;28;19924;-85
2022/12/04 11:54:29;;;;;;;;;;;;;;;10.24;100.00;100209.09;5096386;28;20296;-84
2022/12/04 11:57:13;;;;;;;;;;;;;;;10.27;100.00;100211.41;5043138;28;20008;-81
2022/12/04 11:59:53;;;;;;;;;;;;;;;10.36;100.00;100210.38;5113251;28;19954;-84
2022/12/04 12:02:38;;;;;;;;;;;;;;;10.27;100.00;100208.75;5095126;28;19985;-82
2022/12/04 12:05:12;;;;;;;;;;;;;;;10.16;100.00;100207.28;5100182;28;20010;-82
2022/12/04 12:07:47;;;;;;;;;;;;;;;10.14;100.00;100206.59;5115334;28;19927;-80
2022/12/04 12:10:25;;;;;;;;;;;;;;;10.27;100.00;100203.47;5118812;28;19920;-84
2022/12/04 12:13:16;;;;;;;;;;;;;;;10.10;100.00;100196.47;5117962;28;19926;-83
2022/12/04 12:15:44;;;;;;;;;;;;;;;10.23;100.00;100212.72;5106202;28;19924;-81
2022/12/04 12:18:16;;;;;;;;;;;;;;;10.35;100.00;100209.56;5105194;28;19942;-85
2022/12/04 12:20:48;;;;;;;;;;;;;;;10.30;100.00;100219.84;5094265;28;20022;-84
2022/12/04 12:23:14;;;;;;;;;;;;;;;10.26;100.00;100220.34;5094674;28;19935;-83
2022/12/04 12:25:42;;;;;;;;;;;;;;;10.03;100.00;100219.31;5095909;28;19927;-86
2022/12/04 12:28:19;;;;;;;;;;;;;;;9.79;100.00;100214.84;5101044;28;19924;-79
2022/12/04 12:30:56;;;;;;;;;;;;;;;9.70;100.00;100219.31;5104006;28;21321;-81
2022/12/04 12:33:25;;;;;;;;;;;;;;;10.01;100.00;100223.97;5095806;28;20364;-83
2022/12/04 12:36:04;;;;;;;;;;;;;;;9.75;100.00;100217.00;5094087;28;19920;-83
2022/12/04 12:38:32;;;;;;;;;;;;;;;9.81;100.00;100220.78;5093125;28;19951;-86
2022/12/04 12:41:00;;;;;;;;;;;;;;;9.92;100.00;100230.22;5105560;28;19920;-83
2022/12/04 12:43:34;;;;;;;;;;;;;;;9.99;100.00;100236.53;5115815;28;20382;-81
2022/12/04 12:46:03;;;;;;;;;;;;;;;9.95;100.00;100227.25;5097603;28;19928;-83
2022/12/04 12:48:34;;;;;;;;;;;;;;;9.88;100.00;100231.56;5117106;28;19931;-84
2022/12/04 12:51:03;;;;;;;;;;;;;;;9.92;100.00;100224.94;5116577;28;19962;-82
2022/12/04 12:53:32;;;;;;;;;;;;;;;9.94;100.00;100223.81;5112338;28;19920;-81
2022/12/04 12:56:00;;;;;;;;;;;;;;;9.89;100.00;100228.75;5101377;28;19924;-83
2022/12/04 12:58:29;;;;;;;;;;;;;;;9.94;100.00;100234.38;5098377;28;19988;-83